sensor_id;sensor_type;location;lat;lon;timestamp;P1;durP1;ratioP1;P2;durP2;ratioP2
12593;SDS011;6362;50.208;9.182;2023-08-21T00:00:34;5.30;;;4.38;;
12593;SDS011;6362;50.208;9.182;2023-08-21T00:02:59;6.80;;;4.18;;
12593;SDS011;6362;50.208;9.182;2023-08-21T00:05:25;9.23;;;5.55;;
12593;SDS011;6362;50.208;9.182;2023-08-21T00:07:50;9.80;;;4.95;;
12593;SDS011;6362;50.208;9.182;2023-08-21T00:10:16;6.78;;;4.80;;
12593;SDS011;6362;50.208;9.182;2023-08-21T00:12:42;8.88;;;4.50;;
12593;SDS011;6362;50.208;9.182;2023-08-21T00:15:07;6.65;;;5.00;;
12593;SDS011;6362;50.208;9.182;2023-08-21T00:17:34;9.02;;;5.00;;
12593;SDS011;6362;50.208;9.182;2023-08-21T00:20:00;9.25;;;5.07;;
12593;SDS011;6362;50.208;9.182;2023-08-21T00:22:26;5.45;;;4.45;;
12593;SDS011;6362;50.208;9.182;2023-08-21T00:24:52;8.27;;;4.32;;
12593;SDS011;6362;50.208;9.182;2023-08-21T00:27:17;7.47;;;4.57;;
12593;SDS011;6362;50.208;9.182;2023-08-21T00:29:43;7.28;;;4.82;;
12593;SDS011;6362;50.208;9.182;2023-08-21T00:32:08;6.78;;;4.90;;
12593;SDS011;6362;50.208;9.182;2023-08-21T00:34:33;5.47;;;4.22;;
12593;SDS011;6362;50.208;9.182;2023-08-21T00:36:59;7.07;;;5.13;;
12593;SDS011;6362;50.208;9.182;2023-08-21T00:39:24;6.95;;;4.78;;
12593;SDS011;6362;50.208;9.182;2023-08-21T00:41:50;6.90;;;4.90;;
12593;SDS011;6362;50.208;9.182;2023-08-21T00:44:15;8.38;;;5.20;;
12593;SDS011;6362;50.208;9.182;2023-08-21T00:46:41;5.90;;;4.72;;
12593;SDS011;6362;50.208;9.182;2023-08-21T00:49:06;8.27;;;4.78;;
12593;SDS011;6362;50.208;9.182;2023-08-21T00:51:32;7.95;;;4.72;;
12593;SDS011;6362;50.208;9.182;2023-08-21T00:53:57;7.07;;;5.15;;
12593;SDS011;6362;50.208;9.182;2023-08-21T00:56:23;7.57;;;4.85;;
12593;SDS011;6362;50.208;9.182;2023-08-21T00:58:49;9.00;;;4.85;;
12593;SDS011;6362;50.208;9.182;2023-08-21T01:01:14;7.10;;;5.35;;
12593;SDS011;6362;50.208;9.182;2023-08-21T01:03:43;5.93;;;5.18;;
12593;SDS011;6362;50.208;9.182;2023-08-21T01:06:08;9.23;;;5.60;;
12593;SDS011;6362;50.208;9.182;2023-08-21T01:08:49;9.57;;;5.28;;
12593;SDS011;6362;50.208;9.182;2023-08-21T01:11:39;6.25;;;5.45;;
12593;SDS011;6362;50.208;9.182;2023-08-21T01:17:18;6.20;;;5.25;;
12593;SDS011;6362;50.208;9.182;2023-08-21T01:19:46;5.63;;;4.97;;
12593;SDS011;6362;50.208;9.182;2023-08-21T01:22:13;5.90;;;4.88;;
12593;SDS011;6362;50.208;9.182;2023-08-21T01:24:39;7.20;;;5.32;;
12593;SDS011;6362;50.208;9.182;2023-08-21T01:27:05;8.20;;;5.07;;
12593;SDS011;6362;50.208;9.182;2023-08-21T01:29:30;8.50;;;5.43;;
12593;SDS011;6362;50.208;9.182;2023-08-21T01:34:31;9.68;;;5.35;;
12593;SDS011;6362;50.208;9.182;2023-08-21T01:36:58;6.38;;;5.50;;
12593;SDS011;6362;50.208;9.182;2023-08-21T01:39:25;6.80;;;5.43;;
12593;SDS011;6362;50.208;9.182;2023-08-21T01:41:50;12.05;;;6.68;;
12593;SDS011;6362;50.208;9.182;2023-08-21T01:44:16;7.90;;;5.28;;
12593;SDS011;6362;50.208;9.182;2023-08-21T01:46:41;9.65;;;5.70;;
12593;SDS011;6362;50.208;9.182;2023-08-21T01:49:07;7.32;;;5.18;;
12593;SDS011;6362;50.208;9.182;2023-08-21T01:51:32;5.82;;;5.15;;
12593;SDS011;6362;50.208;9.182;2023-08-21T01:53:58;7.30;;;5.32;;
12593;SDS011;6362;50.208;9.182;2023-08-21T01:56:23;8.13;;;5.45;;
12593;SDS011;6362;50.208;9.182;2023-08-21T01:58:48;14.82;;;6.28;;
12593;SDS011;6362;50.208;9.182;2023-08-21T02:01:14;9.52;;;5.65;;
12593;SDS011;6362;50.208;9.182;2023-08-21T02:03:40;6.03;;;4.78;;
12593;SDS011;6362;50.208;9.182;2023-08-21T02:06:05;7.57;;;5.05;;
12593;SDS011;6362;50.208;9.182;2023-08-21T02:08:31;8.18;;;5.55;;
12593;SDS011;6362;50.208;9.182;2023-08-21T02:10:57;7.93;;;5.35;;
12593;SDS011;6362;50.208;9.182;2023-08-21T02:13:23;8.30;;;5.68;;
12593;SDS011;6362;50.208;9.182;2023-08-21T02:15:48;6.07;;;4.72;;
12593;SDS011;6362;50.208;9.182;2023-08-21T02:18:14;6.50;;;4.97;;
12593;SDS011;6362;50.208;9.182;2023-08-21T02:20:40;7.32;;;5.10;;
12593;SDS011;6362;50.208;9.182;2023-08-21T02:23:05;6.13;;;5.50;;
12593;SDS011;6362;50.208;9.182;2023-08-21T02:25:31;8.73;;;5.68;;
12593;SDS011;6362;50.208;9.182;2023-08-21T02:27:57;7.63;;;5.13;;
12593;SDS011;6362;50.208;9.182;2023-08-21T02:30:23;8.57;;;6.45;;
12593;SDS011;6362;50.208;9.182;2023-08-21T02:32:52;8.13;;;5.20;;
12593;SDS011;6362;50.208;9.182;2023-08-21T02:35:17;8.23;;;5.85;;
12593;SDS011;6362;50.208;9.182;2023-08-21T02:37:43;6.90;;;5.60;;
12593;SDS011;6362;50.208;9.182;2023-08-21T02:40:08;5.75;;;5.05;;
12593;SDS011;6362;50.208;9.182;2023-08-21T02:42:34;8.45;;;5.47;;
12593;SDS011;6362;50.208;9.182;2023-08-21T02:45:00;7.88;;;5.30;;
12593;SDS011;6362;50.208;9.182;2023-08-21T02:47:28;6.20;;;5.15;;
12593;SDS011;6362;50.208;9.182;2023-08-21T02:49:54;7.65;;;5.68;;
12593;SDS011;6362;50.208;9.182;2023-08-21T02:52:20;6.35;;;5.30;;
12593;SDS011;6362;50.208;9.182;2023-08-21T02:54:45;6.20;;;5.18;;
12593;SDS011;6362;50.208;9.182;2023-08-21T02:57:11;8.25;;;5.53;;
12593;SDS011;6362;50.208;9.182;2023-08-21T02:59:36;7.95;;;5.15;;
12593;SDS011;6362;50.208;9.182;2023-08-21T03:02:02;7.03;;;5.55;;
12593;SDS011;6362;50.208;9.182;2023-08-21T03:04:27;8.07;;;5.57;;
12593;SDS011;6362;50.208;9.182;2023-08-21T03:06:53;11.23;;;6.05;;
12593;SDS011;6362;50.208;9.182;2023-08-21T03:09:18;7.32;;;5.63;;
12593;SDS011;6362;50.208;9.182;2023-08-21T03:11:43;8.90;;;6.20;;
12593;SDS011;6362;50.208;9.182;2023-08-21T03:14:09;8.25;;;5.97;;
12593;SDS011;6362;50.208;9.182;2023-08-21T03:16:34;7.13;;;5.50;;
12593;SDS011;6362;50.208;9.182;2023-08-21T03:19:00;8.20;;;5.43;;
12593;SDS011;6362;50.208;9.182;2023-08-21T03:21:26;6.97;;;5.95;;
12593;SDS011;6362;50.208;9.182;2023-08-21T03:23:54;6.32;;;5.47;;
12593;SDS011;6362;50.208;9.182;2023-08-21T03:26:20;6.22;;;5.63;;
12593;SDS011;6362;50.208;9.182;2023-08-21T03:28:46;6.72;;;5.95;;
12593;SDS011;6362;50.208;9.182;2023-08-21T03:31:11;6.88;;;5.90;;
12593;SDS011;6362;50.208;9.182;2023-08-21T03:33:37;7.35;;;5.47;;
12593;SDS011;6362;50.208;9.182;2023-08-21T03:36:02;7.15;;;5.35;;
12593;SDS011;6362;50.208;9.182;2023-08-21T03:38:28;9.68;;;5.55;;
12593;SDS011;6362;50.208;9.182;2023-08-21T03:40:53;6.53;;;5.63;;
12593;SDS011;6362;50.208;9.182;2023-08-21T03:43:19;8.70;;;6.00;;
12593;SDS011;6362;50.208;9.182;2023-08-21T03:45:44;8.65;;;6.15;;
12593;SDS011;6362;50.208;9.182;2023-08-21T03:48:10;6.45;;;5.57;;
12593;SDS011;6362;50.208;9.182;2023-08-21T03:50:35;10.30;;;6.40;;
12593;SDS011;6362;50.208;9.182;2023-08-21T03:53:01;6.03;;;5.43;;
12593;SDS011;6362;50.208;9.182;2023-08-21T03:55:26;6.75;;;6.05;;
12593;SDS011;6362;50.208;9.182;2023-08-21T03:57:51;7.55;;;6.07;;
12593;SDS011;6362;50.208;9.182;2023-08-21T04:00:17;7.57;;;5.65;;
12593;SDS011;6362;50.208;9.182;2023-08-21T04:02:42;10.20;;;6.03;;
12593;SDS011;6362;50.208;9.182;2023-08-21T04:05:08;8.80;;;6.00;;
12593;SDS011;6362;50.208;9.182;2023-08-21T04:07:35;7.63;;;6.15;;
12593;SDS011;6362;50.208;9.182;2023-08-21T04:10:01;11.48;;;6.65;;
12593;SDS011;6362;50.208;9.182;2023-08-21T04:12:26;7.72;;;6.63;;
12593;SDS011;6362;50.208;9.182;2023-08-21T04:14:51;7.70;;;6.15;;
12593;SDS011;6362;50.208;9.182;2023-08-21T04:17:21;12.70;;;7.15;;
12593;SDS011;6362;50.208;9.182;2023-08-21T04:19:47;9.25;;;6.60;;
12593;SDS011;6362;50.208;9.182;2023-08-21T04:22:12;7.60;;;6.07;;
12593;SDS011;6362;50.208;9.182;2023-08-21T04:24:38;7.13;;;5.95;;
12593;SDS011;6362;50.208;9.182;2023-08-21T04:27:04;7.75;;;6.13;;
12593;SDS011;6362;50.208;9.182;2023-08-21T04:29:30;7.80;;;5.60;;
12593;SDS011;6362;50.208;9.182;2023-08-21T04:31:55;8.05;;;6.55;;
12593;SDS011;6362;50.208;9.182;2023-08-21T04:34:21;7.38;;;6.20;;
12593;SDS011;6362;50.208;9.182;2023-08-21T04:36:46;12.52;;;8.05;;
12593;SDS011;6362;50.208;9.182;2023-08-21T04:39:12;9.13;;;6.35;;
12593;SDS011;6362;50.208;9.182;2023-08-21T04:41:39;7.78;;;6.68;;
12593;SDS011;6362;50.208;9.182;2023-08-21T04:44:04;10.07;;;7.15;;
12593;SDS011;6362;50.208;9.182;2023-08-21T04:46:30;9.43;;;7.07;;
12593;SDS011;6362;50.208;9.182;2023-08-21T04:48:55;8.23;;;6.75;;
12593;SDS011;6362;50.208;9.182;2023-08-21T04:51:21;13.02;;;6.45;;
12593;SDS011;6362;50.208;9.182;2023-08-21T04:53:46;8.75;;;7.28;;
12593;SDS011;6362;50.208;9.182;2023-08-21T04:56:12;8.10;;;6.55;;
12593;SDS011;6362;50.208;9.182;2023-08-21T04:58:37;13.50;;;8.18;;
12593;SDS011;6362;50.208;9.182;2023-08-21T05:01:04;12.30;;;7.32;;
12593;SDS011;6362;50.208;9.182;2023-08-21T05:03:30;9.15;;;6.95;;
12593;SDS011;6362;50.208;9.182;2023-08-21T05:05:55;9.68;;;6.07;;
12593;SDS011;6362;50.208;9.182;2023-08-21T05:08:25;10.93;;;6.35;;
12593;SDS011;6362;50.208;9.182;2023-08-21T05:10:57;8.68;;;6.30;;
12593;SDS011;6362;50.208;9.182;2023-08-21T05:13:24;10.63;;;6.90;;
12593;SDS011;6362;50.208;9.182;2023-08-21T05:15:57;9.55;;;6.00;;
12593;SDS011;6362;50.208;9.182;2023-08-21T05:18:23;10.18;;;7.47;;
12593;SDS011;6362;50.208;9.182;2023-08-21T05:20:50;8.65;;;6.80;;
12593;SDS011;6362;50.208;9.182;2023-08-21T05:23:16;9.48;;;7.30;;
12593;SDS011;6362;50.208;9.182;2023-08-21T05:25:42;13.93;;;7.43;;
12593;SDS011;6362;50.208;9.182;2023-08-21T05:28:08;9.93;;;6.55;;
12593;SDS011;6362;50.208;9.182;2023-08-21T05:30:35;11.23;;;6.80;;
12593;SDS011;6362;50.208;9.182;2023-08-21T05:33:01;9.15;;;5.93;;
12593;SDS011;6362;50.208;9.182;2023-08-21T05:35:27;10.25;;;6.68;;
12593;SDS011;6362;50.208;9.182;2023-08-21T05:37:52;9.77;;;6.88;;
12593;SDS011;6362;50.208;9.182;2023-08-21T05:40:18;12.48;;;6.85;;
12593;SDS011;6362;50.208;9.182;2023-08-21T05:42:44;8.45;;;6.35;;
12593;SDS011;6362;50.208;9.182;2023-08-21T05:45:10;8.77;;;7.18;;
12593;SDS011;6362;50.208;9.182;2023-08-21T05:47:35;7.65;;;5.90;;
12593;SDS011;6362;50.208;9.182;2023-08-21T05:50:00;10.13;;;6.80;;
12593;SDS011;6362;50.208;9.182;2023-08-21T05:52:26;8.55;;;6.75;;
12593;SDS011;6362;50.208;9.182;2023-08-21T05:54:52;7.97;;;7.18;;
12593;SDS011;6362;50.208;9.182;2023-08-21T05:57:17;8.10;;;6.35;;
12593;SDS011;6362;50.208;9.182;2023-08-21T05:59:43;7.90;;;6.47;;
12593;SDS011;6362;50.208;9.182;2023-08-21T06:02:10;8.82;;;6.78;;
12593;SDS011;6362;50.208;9.182;2023-08-21T06:04:37;10.18;;;6.72;;
12593;SDS011;6362;50.208;9.182;2023-08-21T06:07:03;8.25;;;6.53;;
12593;SDS011;6362;50.208;9.182;2023-08-21T06:09:28;7.43;;;6.13;;
12593;SDS011;6362;50.208;9.182;2023-08-21T06:11:54;9.32;;;6.63;;
12593;SDS011;6362;50.208;9.182;2023-08-21T06:14:20;12.27;;;6.75;;
12593;SDS011;6362;50.208;9.182;2023-08-21T06:16:53;9.43;;;6.97;;
12593;SDS011;6362;50.208;9.182;2023-08-21T06:19:19;9.75;;;6.15;;
12593;SDS011;6362;50.208;9.182;2023-08-21T06:21:45;9.35;;;5.97;;
12593;SDS011;6362;50.208;9.182;2023-08-21T06:24:10;9.75;;;6.38;;
12593;SDS011;6362;50.208;9.182;2023-08-21T06:26:35;8.02;;;6.18;;
12593;SDS011;6362;50.208;9.182;2023-08-21T06:29:01;8.65;;;6.45;;
12593;SDS011;6362;50.208;9.182;2023-08-21T06:31:26;8.20;;;6.30;;
12593;SDS011;6362;50.208;9.182;2023-08-21T06:33:52;8.05;;;6.47;;
12593;SDS011;6362;50.208;9.182;2023-08-21T06:36:17;8.15;;;6.53;;
12593;SDS011;6362;50.208;9.182;2023-08-21T06:38:42;7.85;;;5.60;;
12593;SDS011;6362;50.208;9.182;2023-08-21T06:41:09;7.95;;;6.20;;
12593;SDS011;6362;50.208;9.182;2023-08-21T06:43:34;7.47;;;5.82;;
12593;SDS011;6362;50.208;9.182;2023-08-21T06:46:00;7.15;;;6.15;;
12593;SDS011;6362;50.208;9.182;2023-08-21T06:48:26;8.07;;;6.07;;
12593;SDS011;6362;50.208;9.182;2023-08-21T06:50:52;9.05;;;5.68;;
12593;SDS011;6362;50.208;9.182;2023-08-21T06:53:17;7.45;;;5.82;;
12593;SDS011;6362;50.208;9.182;2023-08-21T06:55:44;10.15;;;6.05;;
12593;SDS011;6362;50.208;9.182;2023-08-21T06:58:10;7.82;;;6.15;;
12593;SDS011;6362;50.208;9.182;2023-08-21T07:00:36;6.00;;;5.43;;
12593;SDS011;6362;50.208;9.182;2023-08-21T07:03:01;8.07;;;5.75;;
12593;SDS011;6362;50.208;9.182;2023-08-21T07:05:28;6.10;;;5.40;;
12593;SDS011;6362;50.208;9.182;2023-08-21T07:07:53;7.60;;;5.72;;
12593;SDS011;6362;50.208;9.182;2023-08-21T07:10:20;6.68;;;5.57;;
12593;SDS011;6362;50.208;9.182;2023-08-21T07:12:46;6.80;;;6.10;;
12593;SDS011;6362;50.208;9.182;2023-08-21T07:15:11;9.43;;;6.75;;
12593;SDS011;6362;50.208;9.182;2023-08-21T07:17:37;6.93;;;6.22;;
12593;SDS011;6362;50.208;9.182;2023-08-21T07:20:02;9.32;;;6.28;;
12593;SDS011;6362;50.208;9.182;2023-08-21T07:22:29;9.85;;;6.80;;
12593;SDS011;6362;50.208;9.182;2023-08-21T07:24:55;7.78;;;5.97;;
12593;SDS011;6362;50.208;9.182;2023-08-21T07:27:20;11.52;;;6.28;;
12593;SDS011;6362;50.208;9.182;2023-08-21T07:29:45;6.53;;;5.82;;
12593;SDS011;6362;50.208;9.182;2023-08-21T07:32:11;8.77;;;6.03;;
12593;SDS011;6362;50.208;9.182;2023-08-21T07:34:36;6.60;;;5.93;;
12593;SDS011;6362;50.208;9.182;2023-08-21T07:37:02;6.97;;;5.85;;
12593;SDS011;6362;50.208;9.182;2023-08-21T07:39:27;7.80;;;6.40;;
12593;SDS011;6362;50.208;9.182;2023-08-21T07:41:53;6.85;;;5.88;;
12593;SDS011;6362;50.208;9.182;2023-08-21T07:44:18;8.00;;;5.88;;
12593;SDS011;6362;50.208;9.182;2023-08-21T07:46:44;9.18;;;6.10;;
12593;SDS011;6362;50.208;9.182;2023-08-21T07:49:09;10.13;;;5.82;;
12593;SDS011;6362;50.208;9.182;2023-08-21T07:51:35;7.15;;;6.22;;
12593;SDS011;6362;50.208;9.182;2023-08-21T07:54:01;9.05;;;6.10;;
12593;SDS011;6362;50.208;9.182;2023-08-21T07:56:27;9.43;;;6.88;;
12593;SDS011;6362;50.208;9.182;2023-08-21T07:58:52;8.85;;;6.63;;
12593;SDS011;6362;50.208;9.182;2023-08-21T08:01:17;6.97;;;6.22;;
12593;SDS011;6362;50.208;9.182;2023-08-21T08:03:45;7.25;;;6.50;;
12593;SDS011;6362;50.208;9.182;2023-08-21T08:06:10;9.55;;;6.03;;
12593;SDS011;6362;50.208;9.182;2023-08-21T08:08:36;7.75;;;6.18;;
12593;SDS011;6362;50.208;9.182;2023-08-21T08:11:04;6.90;;;6.00;;
12593;SDS011;6362;50.208;9.182;2023-08-21T08:13:31;9.82;;;6.40;;
12593;SDS011;6362;50.208;9.182;2023-08-21T08:15:57;8.27;;;7.43;;
12593;SDS011;6362;50.208;9.182;2023-08-21T08:18:22;9.05;;;6.38;;
12593;SDS011;6362;50.208;9.182;2023-08-21T08:20:48;7.88;;;6.65;;
12593;SDS011;6362;50.208;9.182;2023-08-21T08:23:13;9.43;;;7.18;;
12593;SDS011;6362;50.208;9.182;2023-08-21T08:25:39;11.75;;;6.47;;
12593;SDS011;6362;50.208;9.182;2023-08-21T08:28:04;8.43;;;6.40;;
12593;SDS011;6362;50.208;9.182;2023-08-21T08:30:30;8.63;;;6.82;;
12593;SDS011;6362;50.208;9.182;2023-08-21T08:32:55;6.88;;;6.00;;
12593;SDS011;6362;50.208;9.182;2023-08-21T08:35:21;9.70;;;6.88;;
12593;SDS011;6362;50.208;9.182;2023-08-21T08:37:46;7.57;;;6.40;;
12593;SDS011;6362;50.208;9.182;2023-08-21T08:40:12;8.40;;;6.45;;
12593;SDS011;6362;50.208;9.182;2023-08-21T08:42:38;9.65;;;7.57;;
12593;SDS011;6362;50.208;9.182;2023-08-21T08:45:04;11.18;;;7.65;;
12593;SDS011;6362;50.208;9.182;2023-08-21T08:47:34;7.95;;;6.63;;
12593;SDS011;6362;50.208;9.182;2023-08-21T08:50:03;9.23;;;7.15;;
12593;SDS011;6362;50.208;9.182;2023-08-21T08:52:36;10.40;;;7.43;;
12593;SDS011;6362;50.208;9.182;2023-08-21T08:55:03;8.52;;;7.28;;
12593;SDS011;6362;50.208;9.182;2023-08-21T08:57:28;8.57;;;7.32;;
12593;SDS011;6362;50.208;9.182;2023-08-21T08:59:55;8.23;;;7.35;;
12593;SDS011;6362;50.208;9.182;2023-08-21T09:02:20;9.63;;;6.72;;
12593;SDS011;6362;50.208;9.182;2023-08-21T09:04:45;9.20;;;7.80;;
12593;SDS011;6362;50.208;9.182;2023-08-21T09:07:11;8.48;;;7.30;;
12593;SDS011;6362;50.208;9.182;2023-08-21T09:09:38;12.40;;;7.32;;
12593;SDS011;6362;50.208;9.182;2023-08-21T09:12:09;8.48;;;7.15;;
12593;SDS011;6362;50.208;9.182;2023-08-21T09:14:37;9.80;;;7.50;;
12593;SDS011;6362;50.208;9.182;2023-08-21T09:17:03;9.88;;;6.65;;
12593;SDS011;6362;50.208;9.182;2023-08-21T09:19:29;10.88;;;7.38;;
12593;SDS011;6362;50.208;9.182;2023-08-21T09:21:54;9.43;;;7.45;;
12593;SDS011;6362;50.208;9.182;2023-08-21T09:24:20;8.38;;;6.57;;
12593;SDS011;6362;50.208;9.182;2023-08-21T09:26:45;8.95;;;7.10;;
12593;SDS011;6362;50.208;9.182;2023-08-21T09:29:12;10.88;;;8.13;;
12593;SDS011;6362;50.208;9.182;2023-08-21T09:31:37;9.77;;;7.60;;
12593;SDS011;6362;50.208;9.182;2023-08-21T09:34:03;15.43;;;6.70;;
12593;SDS011;6362;50.208;9.182;2023-08-21T09:36:32;8.35;;;6.65;;
12593;SDS011;6362;50.208;9.182;2023-08-21T09:38:59;7.57;;;6.78;;
12593;SDS011;6362;50.208;9.182;2023-08-21T09:41:25;10.30;;;7.75;;
12593;SDS011;6362;50.208;9.182;2023-08-21T09:43:51;13.50;;;7.18;;
12593;SDS011;6362;50.208;9.182;2023-08-21T09:46:17;8.63;;;7.32;;
12593;SDS011;6362;50.208;9.182;2023-08-21T09:48:54;8.27;;;6.68;;
12593;SDS011;6362;50.208;9.182;2023-08-21T09:51:20;7.68;;;6.32;;
12593;SDS011;6362;50.208;9.182;2023-08-21T09:53:47;10.15;;;6.88;;
12593;SDS011;6362;50.208;9.182;2023-08-21T09:56:14;10.90;;;7.05;;
12593;SDS011;6362;50.208;9.182;2023-08-21T09:58:39;8.45;;;6.38;;
12593;SDS011;6362;50.208;9.182;2023-08-21T10:01:05;8.18;;;6.75;;
12593;SDS011;6362;50.208;9.182;2023-08-21T10:03:39;10.88;;;5.65;;
12593;SDS011;6362;50.208;9.182;2023-08-21T10:06:07;7.20;;;5.55;;
12593;SDS011;6362;50.208;9.182;2023-08-21T10:08:38;8.40;;;5.80;;
12593;SDS011;6362;50.208;9.182;2023-08-21T10:11:08;7.45;;;6.20;;
12593;SDS011;6362;50.208;9.182;2023-08-21T10:13:35;6.68;;;5.90;;
12593;SDS011;6362;50.208;9.182;2023-08-21T10:16:03;6.93;;;4.70;;
12593;SDS011;6362;50.208;9.182;2023-08-21T10:18:31;6.82;;;5.20;;
12593;SDS011;6362;50.208;9.182;2023-08-21T10:21:13;7.53;;;5.65;;
12593;SDS011;6362;50.208;9.182;2023-08-21T10:23:40;5.07;;;4.53;;
12593;SDS011;6362;50.208;9.182;2023-08-21T10:26:07;5.30;;;4.80;;
12593;SDS011;6362;50.208;9.182;2023-08-21T10:28:47;5.32;;;4.35;;
12593;SDS011;6362;50.208;9.182;2023-08-21T10:31:25;6.72;;;4.53;;
12593;SDS011;6362;50.208;9.182;2023-08-21T10:33:51;7.35;;;4.68;;
12593;SDS011;6362;50.208;9.182;2023-08-21T10:36:36;5.82;;;4.05;;
12593;SDS011;6362;50.208;9.182;2023-08-21T10:39:20;5.60;;;4.32;;
12593;SDS011;6362;50.208;9.182;2023-08-21T10:41:56;7.10;;;4.35;;
12593;SDS011;6362;50.208;9.182;2023-08-21T10:47:20;4.32;;;3.92;;
12593;SDS011;6362;50.208;9.182;2023-08-21T10:49:55;4.95;;;3.30;;
12593;SDS011;6362;50.208;9.182;2023-08-21T10:52:39;3.97;;;3.20;;
12593;SDS011;6362;50.208;9.182;2023-08-21T10:55:13;4.87;;;3.50;;
12593;SDS011;6362;50.208;9.182;2023-08-21T10:57:40;6.30;;;4.05;;
12593;SDS011;6362;50.208;9.182;2023-08-21T11:00:07;4.32;;;3.58;;
12593;SDS011;6362;50.208;9.182;2023-08-21T11:02:35;5.30;;;3.60;;
12593;SDS011;6362;50.208;9.182;2023-08-21T11:05:01;4.32;;;3.90;;
12593;SDS011;6362;50.208;9.182;2023-08-21T11:07:28;6.50;;;3.92;;
12593;SDS011;6362;50.208;9.182;2023-08-21T11:09:54;5.32;;;4.10;;
12593;SDS011;6362;50.208;9.182;2023-08-21T11:12:23;6.25;;;4.05;;
12593;SDS011;6362;50.208;9.182;2023-08-21T11:14:49;6.55;;;4.03;;
12593;SDS011;6362;50.208;9.182;2023-08-21T11:17:15;6.07;;;3.63;;
12593;SDS011;6362;50.208;9.182;2023-08-21T11:19:41;4.30;;;3.90;;
12593;SDS011;6362;50.208;9.182;2023-08-21T11:22:07;4.13;;;3.40;;
12593;SDS011;6362;50.208;9.182;2023-08-21T11:24:43;8.18;;;3.50;;
12593;SDS011;6362;50.208;9.182;2023-08-21T11:27:12;4.00;;;3.35;;
12593;SDS011;6362;50.208;9.182;2023-08-21T11:29:40;4.68;;;3.28;;
12593;SDS011;6362;50.208;9.182;2023-08-21T11:32:15;3.35;;;2.60;;
12593;SDS011;6362;50.208;9.182;2023-08-21T11:34:56;3.65;;;3.10;;
12593;SDS011;6362;50.208;9.182;2023-08-21T11:37:23;4.43;;;2.92;;
12593;SDS011;6362;50.208;9.182;2023-08-21T11:39:53;2.78;;;2.38;;
12593;SDS011;6362;50.208;9.182;2023-08-21T11:42:21;3.10;;;2.30;;
12593;SDS011;6362;50.208;9.182;2023-08-21T11:44:53;2.85;;;2.50;;
12593;SDS011;6362;50.208;9.182;2023-08-21T11:47:19;2.80;;;2.00;;
12593;SDS011;6362;50.208;9.182;2023-08-21T11:49:47;2.15;;;1.55;;
12593;SDS011;6362;50.208;9.182;2023-08-21T11:52:14;5.30;;;1.83;;
12593;SDS011;6362;50.208;9.182;2023-08-21T11:54:43;2.13;;;1.67;;
12593;SDS011;6362;50.208;9.182;2023-08-21T11:57:16;2.88;;;1.70;;
12593;SDS011;6362;50.208;9.182;2023-08-21T11:59:42;3.17;;;2.00;;
12593;SDS011;6362;50.208;9.182;2023-08-21T12:02:17;3.58;;;1.70;;
12593;SDS011;6362;50.208;9.182;2023-08-21T12:04:44;7.50;;;2.15;;
12593;SDS011;6362;50.208;9.182;2023-08-21T12:07:10;2.63;;;1.83;;
12593;SDS011;6362;50.208;9.182;2023-08-21T12:09:37;4.47;;;1.85;;
12593;SDS011;6362;50.208;9.182;2023-08-21T12:12:02;1.98;;;1.77;;
12593;SDS011;6362;50.208;9.182;2023-08-21T12:14:28;3.80;;;2.28;;
12593;SDS011;6362;50.208;9.182;2023-08-21T12:16:54;5.78;;;2.58;;
12593;SDS011;6362;50.208;9.182;2023-08-21T12:19:23;3.58;;;2.08;;
12593;SDS011;6362;50.208;9.182;2023-08-21T12:21:49;3.10;;;2.58;;
12593;SDS011;6362;50.208;9.182;2023-08-21T12:24:15;2.92;;;1.92;;
12593;SDS011;6362;50.208;9.182;2023-08-21T12:26:40;2.15;;;1.73;;
12593;SDS011;6362;50.208;9.182;2023-08-21T12:29:06;2.47;;;1.58;;
12593;SDS011;6362;50.208;9.182;2023-08-21T12:31:31;2.60;;;1.58;;
12593;SDS011;6362;50.208;9.182;2023-08-21T12:33:57;1.98;;;1.63;;
12593;SDS011;6362;50.208;9.182;2023-08-21T12:36:22;3.05;;;2.00;;
12593;SDS011;6362;50.208;9.182;2023-08-21T12:38:48;2.25;;;1.73;;
12593;SDS011;6362;50.208;9.182;2023-08-21T12:41:13;2.08;;;1.50;;
12593;SDS011;6362;50.208;9.182;2023-08-21T12:43:39;1.67;;;1.50;;
12593;SDS011;6362;50.208;9.182;2023-08-21T12:46:04;4.22;;;2.50;;
12593;SDS011;6362;50.208;9.182;2023-08-21T12:48:30;3.17;;;1.67;;
12593;SDS011;6362;50.208;9.182;2023-08-21T12:50:55;2.05;;;1.85;;
12593;SDS011;6362;50.208;9.182;2023-08-21T12:53:21;1.92;;;1.55;;
12593;SDS011;6362;50.208;9.182;2023-08-21T12:55:46;3.28;;;2.03;;
12593;SDS011;6362;50.208;9.182;2023-08-21T12:58:12;2.90;;;1.90;;
12593;SDS011;6362;50.208;9.182;2023-08-21T13:00:38;2.05;;;1.80;;
12593;SDS011;6362;50.208;9.182;2023-08-21T13:03:04;3.53;;;1.95;;
12593;SDS011;6362;50.208;9.182;2023-08-21T13:05:30;3.45;;;1.73;;
12593;SDS011;6362;50.208;9.182;2023-08-21T13:07:55;1.90;;;1.75;;
12593;SDS011;6362;50.208;9.182;2023-08-21T13:10:20;2.85;;;1.92;;
12593;SDS011;6362;50.208;9.182;2023-08-21T13:12:46;3.25;;;2.10;;
12593;SDS011;6362;50.208;9.182;2023-08-21T13:15:11;2.15;;;1.90;;
12593;SDS011;6362;50.208;9.182;2023-08-21T13:17:37;6.18;;;1.65;;
12593;SDS011;6362;50.208;9.182;2023-08-21T13:20:02;2.60;;;1.50;;
12593;SDS011;6362;50.208;9.182;2023-08-21T13:22:28;3.30;;;1.75;;
12593;SDS011;6362;50.208;9.182;2023-08-21T13:24:54;2.30;;;1.77;;
12593;SDS011;6362;50.208;9.182;2023-08-21T13:27:19;3.65;;;2.17;;
12593;SDS011;6362;50.208;9.182;2023-08-21T13:29:45;2.50;;;1.50;;
12593;SDS011;6362;50.208;9.182;2023-08-21T13:32:11;1.73;;;1.60;;
12593;SDS011;6362;50.208;9.182;2023-08-21T13:34:37;2.55;;;1.80;;
12593;SDS011;6362;50.208;9.182;2023-08-21T13:37:02;3.88;;;1.90;;
12593;SDS011;6362;50.208;9.182;2023-08-21T13:39:29;4.35;;;1.85;;
12593;SDS011;6362;50.208;9.182;2023-08-21T13:41:55;2.00;;;1.70;;
12593;SDS011;6362;50.208;9.182;2023-08-21T13:44:21;2.33;;;1.85;;
12593;SDS011;6362;50.208;9.182;2023-08-21T13:46:46;2.15;;;1.75;;
12593;SDS011;6362;50.208;9.182;2023-08-21T13:49:12;4.57;;;2.15;;
12593;SDS011;6362;50.208;9.182;2023-08-21T13:51:37;3.78;;;2.13;;
12593;SDS011;6362;50.208;9.182;2023-08-21T13:54:03;1.98;;;1.50;;
12593;SDS011;6362;50.208;9.182;2023-08-21T13:56:28;2.05;;;1.52;;
12593;SDS011;6362;50.208;9.182;2023-08-21T13:58:54;1.88;;;1.50;;
12593;SDS011;6362;50.208;9.182;2023-08-21T14:01:19;1.67;;;1.40;;
12593;SDS011;6362;50.208;9.182;2023-08-21T14:03:44;2.22;;;1.40;;
12593;SDS011;6362;50.208;9.182;2023-08-21T14:06:10;4.90;;;1.92;;
12593;SDS011;6362;50.208;9.182;2023-08-21T14:08:37;2.55;;;1.45;;
12593;SDS011;6362;50.208;9.182;2023-08-21T14:11:03;2.63;;;1.40;;
12593;SDS011;6362;50.208;9.182;2023-08-21T14:13:28;2.65;;;1.65;;
12593;SDS011;6362;50.208;9.182;2023-08-21T14:15:53;2.15;;;1.67;;
12593;SDS011;6362;50.208;9.182;2023-08-21T14:18:19;1.75;;;1.40;;
12593;SDS011;6362;50.208;9.182;2023-08-21T14:20:44;3.47;;;1.73;;
12593;SDS011;6362;50.208;9.182;2023-08-21T14:23:10;2.03;;;1.50;;
12593;SDS011;6362;50.208;9.182;2023-08-21T14:25:35;5.22;;;1.65;;
12593;SDS011;6362;50.208;9.182;2023-08-21T14:28:02;2.03;;;1.58;;
12593;SDS011;6362;50.208;9.182;2023-08-21T14:30:28;2.30;;;1.60;;
12593;SDS011;6362;50.208;9.182;2023-08-21T14:32:53;4.72;;;1.83;;
12593;SDS011;6362;50.208;9.182;2023-08-21T14:35:18;1.95;;;1.77;;
12593;SDS011;6362;50.208;9.182;2023-08-21T14:37:44;4.60;;;1.77;;
12593;SDS011;6362;50.208;9.182;2023-08-21T14:40:09;1.65;;;1.48;;
12593;SDS011;6362;50.208;9.182;2023-08-21T14:42:36;2.55;;;1.65;;
12593;SDS011;6362;50.208;9.182;2023-08-21T14:45:02;3.85;;;1.90;;
12593;SDS011;6362;50.208;9.182;2023-08-21T14:47:28;2.30;;;1.70;;
12593;SDS011;6362;50.208;9.182;2023-08-21T14:49:53;2.95;;;1.80;;
12593;SDS011;6362;50.208;9.182;2023-08-21T14:52:20;2.85;;;2.08;;
12593;SDS011;6362;50.208;9.182;2023-08-21T14:54:45;2.78;;;1.85;;
12593;SDS011;6362;50.208;9.182;2023-08-21T14:57:13;2.03;;;1.80;;
12593;SDS011;6362;50.208;9.182;2023-08-21T14:59:38;4.20;;;2.05;;
12593;SDS011;6362;50.208;9.182;2023-08-21T15:02:04;2.45;;;1.92;;
12593;SDS011;6362;50.208;9.182;2023-08-21T15:04:29;1.95;;;1.75;;